Time;durP1;ratioP1;P1;durP2;ratioP2;P2;SDS_P1;SDS_P2;PMS_P1;PMS_P2;Temp;Humidity;BMP_temperature;BMP_pressure;BME280_temperature;BME280_humidity;BME280_pressure;Samples;Min_cycle;Max_cycle;Signal;HPM_P1;HPM_P2
2022/01/18 00:02:05;;;;;;;18.47;3.13;;;3.30;99.90;;;;;;4976019;28;20323;-72
2022/01/18 00:04:30;;;;;;;13.27;2.60;;;3.30;99.90;;;;;;4961426;28;20210;-73
2022/01/18 00:06:56;;;;;;;15.00;2.73;;;3.40;99.90;;;;;;4977235;28;20669;-72
2022/01/18 00:09:24;;;;;;;8.13;2.20;;;3.30;99.90;;;;;;4973494;28;20264;-72
2022/01/18 00:11:59;;;;;;;13.80;3.27;;;3.30;99.90;;;;;;4976686;28;20187;-73
2022/01/18 00:14:28;;;;;;;10.40;2.93;;;3.30;99.90;;;;;;4974189;28;20242;-72
2022/01/18 00:17:40;;;;;;;20.90;4.50;;;3.30;99.90;;;;;;4976303;28;20183;-72
2022/01/18 00:19:57;;;;;;;12.37;3.03;;;3.40;99.90;;;;;;4970499;28;20189;-72
2022/01/18 00:22:25;;;;;;;14.97;3.73;;;3.40;99.90;;;;;;4973486;28;20172;-72
2022/01/18 00:24:51;;;;;;;15.60;3.60;;;3.40;99.90;;;;;;4978428;28;20239;-72
2022/01/18 00:27:18;;;;;;;29.33;4.93;;;3.40;99.90;;;;;;4978316;28;20280;-74
2022/01/18 00:30:00;;;;;;;18.00;4.10;;;3.50;99.90;;;;;;4973381;28;20181;-71
2022/01/18 00:32:43;;;;;;;17.47;4.97;;;3.50;99.90;;;;;;4974290;28;20177;-75
2022/01/18 00:35:10;;;;;;;13.10;3.50;;;3.50;99.90;;;;;;4974519;28;20262;-72
2022/01/18 00:37:39;;;;;;;10.80;3.77;;;3.50;99.90;;;;;;4973899;28;20208;-71
2022/01/18 00:40:06;;;;;;;15.33;3.73;;;3.50;99.90;;;;;;4977428;28;20255;-73
2022/01/18 00:42:31;;;;;;;21.10;4.03;;;3.40;99.90;;;;;;4974926;28;20185;-73
2022/01/18 00:44:57;;;;;;;19.47;4.80;;;3.50;99.90;;;;;;4976915;28;20739;-74
2022/01/18 00:47:23;;;;;;;14.27;4.40;;;3.50;99.90;;;;;;4979383;28;20636;-71
2022/01/18 00:49:56;;;;;;;11.03;3.83;;;3.50;99.90;;;;;;4973694;28;20657;-74
2022/01/18 00:52:22;;;;;;;16.20;3.13;;;3.50;99.90;;;;;;4956434;28;20763;-75
2022/01/18 00:54:48;;;;;;;16.67;3.93;;;3.50;99.90;;;;;;4972530;28;20255;-73
2022/01/18 00:57:14;;;;;;;12.13;3.27;;;3.50;99.90;;;;;;4974576;28;20590;-73
2022/01/18 00:59:41;;;;;;;11.33;3.07;;;3.40;99.90;;;;;;4975197;28;20228;-74
2022/01/18 01:02:10;;;;;;;14.33;3.23;;;3.50;99.90;;;;;;4973631;28;20204;-72
2022/01/18 01:04:41;;;;;;;17.37;3.53;;;3.50;99.90;;;;;;4971964;28;20197;-73
2022/01/18 01:07:07;;;;;;;13.70;3.30;;;3.60;99.90;;;;;;4960433;28;20180;-73
2022/01/18 01:09:33;;;;;;;14.63;3.00;;;3.70;99.90;;;;;;4972981;28;20236;-72
2022/01/18 01:11:59;;;;;;;12.17;3.00;;;3.70;99.90;;;;;;4975317;28;20243;-73
2022/01/18 01:14:27;;;;;;;13.20;3.80;;;3.70;99.90;;;;;;4975247;28;20204;-72
2022/01/18 01:35:38;;;;;;;17.97;3.13;;;3.70;99.90;;;;;;4973972;28;20275;-73
2022/01/18 01:46:14;;;;;;;16.10;2.50;;;3.70;99.90;;;;;;4974626;28;20656;-73
2022/01/18 01:48:44;;;;;;;18.63;3.50;;;3.70;99.90;;;;;;4975696;28;20188;-74
2022/01/18 01:51:10;;;;;;;9.93;2.60;;;3.70;99.90;;;;;;4973154;28;20678;-74
2022/01/18 01:53:35;;;;;;;15.37;3.37;;;3.70;99.90;;;;;;4976239;28;20205;-75
2022/01/18 01:56:02;;;;;;;13.63;2.40;;;3.80;99.90;;;;;;4977641;28;20196;-75
2022/01/18 01:58:28;;;;;;;15.13;2.40;;;3.70;99.90;;;;;;4974908;28;20282;-72
2022/01/18 02:01:05;;;;;;;12.83;2.20;;;3.70;99.90;;;;;;4973745;28;20203;-74
2022/01/18 02:03:31;;;;;;;11.37;2.60;;;3.80;99.90;;;;;;4974180;28;20204;-73
2022/01/18 02:05:57;;;;;;;9.43;2.20;;;3.80;99.90;;;;;;4971987;28;20552;-74
2022/01/18 02:08:22;;;;;;;16.13;2.87;;;3.70;99.90;;;;;;4976269;28;20695;-75
2022/01/18 02:10:48;;;;;;;9.50;2.20;;;3.80;99.90;;;;;;4974473;28;20189;-74
2022/01/18 02:13:15;;;;;;;10.93;2.60;;;3.80;99.90;;;;;;4973106;28;20208;-73
2022/01/18 02:15:59;;;;;;;9.87;2.37;;;3.80;99.90;;;;;;4974672;28;20236;-74
2022/01/18 02:23:52;;;;;;;9.30;2.03;;;3.80;99.90;;;;;;4970472;28;20792;-72
2022/01/18 02:26:18;;;;;;;9.77;2.47;;;3.80;99.90;;;;;;4975821;28;20224;-72
2022/01/18 02:28:44;;;;;;;10.43;2.80;;;3.90;99.90;;;;;;4977193;28;20660;-72
2022/01/18 02:31:09;;;;;;;10.90;2.20;;;4.00;99.90;;;;;;4975189;28;20192;-73
2022/01/18 02:33:35;;;;;;;11.20;2.70;;;4.00;99.90;;;;;;4979763;28;20219;-72
2022/01/18 02:36:05;;;;;;;10.80;2.37;;;4.10;99.90;;;;;;4977233;28;20196;-72
2022/01/18 02:38:31;;;;;;;12.70;2.30;;;4.10;99.90;;;;;;4977216;28;20217;-72
2022/01/18 02:40:58;;;;;;;9.23;1.70;;;4.10;99.90;;;;;;4978084;28;20176;-75
2022/01/18 02:46:27;;;;;;;9.23;2.73;;;4.20;99.90;;;;;;4957981;28;20205;-71
2022/01/18 02:48:55;;;;;;;6.03;1.67;;;4.20;99.90;;;;;;4955143;28;20672;-72
2022/01/18 02:51:21;;;;;;;10.73;2.10;;;4.20;99.90;;;;;;4964746;28;20189;-77
2022/01/18 02:54:00;;;;;;;11.30;1.90;;;4.10;99.90;;;;;;4975761;28;20200;-74
2022/01/18 02:56:28;;;;;;;12.43;2.47;;;4.10;99.90;;;;;;4977166;28;20191;-74
2022/01/18 02:59:02;;;;;;;14.80;2.60;;;4.10;99.90;;;;;;4975629;28;20574;-73
2022/01/18 03:04:13;;;;;;;11.00;2.30;;;4.10;99.90;;;;;;4979066;28;20289;-73
2022/01/18 03:06:39;;;;;;;9.57;2.00;;;4.20;99.90;;;;;;4977818;28;20209;-75
2022/01/18 03:09:04;;;;;;;10.53;2.03;;;4.20;99.90;;;;;;4982316;28;20185;-74
2022/01/18 03:11:30;;;;;;;9.87;2.33;;;4.20;99.90;;;;;;4976502;28;20188;-75
2022/01/18 03:13:56;;;;;;;12.77;2.40;;;4.20;99.90;;;;;;4975260;28;20576;-73
2022/01/18 03:16:21;;;;;;;14.53;2.43;;;4.20;99.90;;;;;;4974555;28;21147;-73
2022/01/18 03:18:47;;;;;;;11.37;2.40;;;4.20;99.90;;;;;;4975169;28;20716;-73
2022/01/18 03:21:12;;;;;;;5.43;2.17;;;4.20;99.90;;;;;;4975954;28;20250;-73
2022/01/18 03:23:38;;;;;;;8.27;2.67;;;4.10;99.90;;;;;;4977282;28;20209;-72
2022/01/18 03:26:14;;;;;;;12.27;2.77;;;4.20;99.90;;;;;;4975184;28;20184;-73
2022/01/18 03:28:40;;;;;;;10.23;2.37;;;4.20;99.90;;;;;;4959836;28;20271;-72
2022/01/18 03:31:05;;;;;;;7.20;2.10;;;4.20;99.90;;;;;;4955588;28;20280;-72
2022/01/18 03:33:31;;;;;;;12.00;2.60;;;4.20;99.90;;;;;;4973855;28;20228;-72
2022/01/18 03:35:57;;;;;;;13.43;2.43;;;4.30;99.90;;;;;;4972218;28;20316;-73
2022/01/18 03:38:29;;;;;;;10.67;1.90;;;4.20;99.90;;;;;;4970143;28;20299;-75
2022/01/18 03:41:03;;;;;;;10.50;2.60;;;4.20;99.90;;;;;;4975283;28;20688;-72
2022/01/18 03:43:34;;;;;;;11.00;2.50;;;4.30;99.90;;;;;;4972022;28;20228;-73
2022/01/18 03:46:02;;;;;;;7.43;2.00;;;4.20;99.90;;;;;;4978520;28;20183;-73
2022/01/18 03:48:32;;;;;;;9.60;3.03;;;4.20;99.90;;;;;;4977849;28;20657;-72
2022/01/18 03:50:59;;;;;;;8.73;2.57;;;4.20;99.90;;;;;;4981780;28;20188;-73
2022/01/18 03:53:25;;;;;;;8.97;2.30;;;4.20;99.90;;;;;;4973521;28;20196;-73
2022/01/18 03:55:52;;;;;;;5.80;1.83;;;4.20;99.90;;;;;;4979164;28;20193;-72
2022/01/18 03:58:18;;;;;;;9.30;1.67;;;4.20;99.90;;;;;;4971783;28;20231;-73
2022/01/18 04:00:43;;;;;;;7.67;1.63;;;4.30;99.90;;;;;;4957457;28;20188;-72
2022/01/18 04:03:09;;;;;;;13.87;1.83;;;4.30;99.90;;;;;;4976681;28;20200;-72
2022/01/18 04:05:35;;;;;;;6.63;1.70;;;4.30;99.90;;;;;;4973247;28;20181;-72
2022/01/18 04:08:00;;;;;;;8.30;1.87;;;4.30;99.90;;;;;;4977562;28;20192;-72
2022/01/18 04:10:26;;;;;;;5.60;1.40;;;4.30;99.90;;;;;;4974854;28;20628;-71
2022/01/18 04:12:55;;;;;;;5.83;1.30;;;4.20;99.90;;;;;;4976925;28;20662;-71
2022/01/18 04:15:22;;;;;;;4.20;1.10;;;4.30;99.90;;;;;;4975821;28;20267;-73
2022/01/18 04:26:52;;;;;;;7.17;0.90;;;4.50;99.90;;;;;;4973432;28;20300;-75
2022/01/18 04:28:50;;;;;;;1.93;0.70;;;4.50;99.90;;;;;;4973680;28;20184;-72
2022/01/18 04:31:16;;;;;;;1.47;1.20;;;4.60;99.90;;;;;;4960638;28;20604;-74
2022/01/18 04:33:41;;;;;;;1.40;0.53;;;4.70;99.90;;;;;;4970948;28;20216;-73
2022/01/18 04:36:08;;;;;;;1.77;0.67;;;4.60;99.90;;;;;;4972908;28;20230;-73
2022/01/18 04:38:34;;;;;;;2.50;0.67;;;4.60;99.90;;;;;;4975876;28;20571;-72
2022/01/18 04:41:06;;;;;;;3.93;0.87;;;4.60;99.90;;;;;;4969413;28;20261;-73
2022/01/18 04:48:48;;;;;;;3.90;0.90;;;4.50;99.90;;;;;;4967075;28;20562;-73
2022/01/18 04:51:14;;;;;;;2.87;0.83;;;4.50;99.90;;;;;;4973059;28;20192;-74
2022/01/18 04:53:47;;;;;;;3.80;1.00;;;4.40;99.90;;;;;;4969966;28;20244;-74
2022/01/18 04:56:16;;;;;;;2.40;0.73;;;4.30;99.90;;;;;;4964263;28;20204;-72
2022/01/18 04:58:42;;;;;;;5.13;0.80;;;4.30;99.90;;;;;;4972398;28;20204;-72
2022/01/18 05:01:10;;;;;;;3.27;1.43;;;4.20;99.90;;;;;;4973589;28;21008;-72
2022/01/18 05:03:36;;;;;;;9.20;1.20;;;4.20;99.90;;;;;;4974145;28;20630;-72
2022/01/18 05:06:13;;;;;;;3.53;1.00;;;4.20;99.90;;;;;;4975755;28;20272;-72
2022/01/18 05:08:39;;;;;;;6.93;0.80;;;4.30;99.90;;;;;;4975026;28;20175;-72
2022/01/18 05:11:08;;;;;;;9.20;1.40;;;4.20;99.90;;;;;;4968689;28;20319;-72
2022/01/18 05:21:34;;;;;;;6.00;1.27;;;4.30;99.90;;;;;;4976661;28;20294;-74
2022/01/18 05:24:00;;;;;;;3.80;0.90;;;4.20;99.90;;;;;;4973900;28;20216;-72
2022/01/18 05:26:28;;;;;;;3.93;1.20;;;4.30;99.90;;;;;;4970985;28;20189;-72
2022/01/18 05:28:53;;;;;;;2.83;0.60;;;4.30;99.90;;;;;;4964393;28;20196;-74
2022/01/18 05:31:19;;;;;;;2.63;0.80;;;4.20;99.90;;;;;;4972996;28;20525;-72
2022/01/18 05:33:47;;;;;;;5.00;1.10;;;4.10;99.90;;;;;;4972900;28;20656;-72
2022/01/18 05:36:14;;;;;;;6.10;1.13;;;4.00;99.90;;;;;;4973876;28;20184;-72
2022/01/18 05:38:40;;;;;;;5.13;1.67;;;4.00;99.90;;;;;;4979536;28;20199;-71
2022/01/18 05:41:08;;;;;;;4.90;1.80;;;3.90;99.90;;;;;;4976680;28;20184;-73
2022/01/18 05:43:34;;;;;;;7.93;2.00;;;3.80;99.90;;;;;;4971541;28;20212;-75
2022/01/18 05:45:59;;;;;;;6.23;1.57;;;3.80;99.90;;;;;;4972940;28;20192;-75
2022/01/18 05:48:26;;;;;;;5.90;1.57;;;3.70;99.90;;;;;;4968329;28;20243;-74
2022/01/18 05:50:53;;;;;;;7.27;1.70;;;3.60;99.90;;;;;;4971483;28;20201;-74
2022/01/18 05:53:19;;;;;;;6.57;2.13;;;3.50;99.90;;;;;;4956371;28;20579;-75
2022/01/18 05:55:45;;;;;;;7.30;2.10;;;3.50;99.90;;;;;;4970205;28;20185;-74
2022/01/18 05:58:10;;;;;;;6.97;1.90;;;3.50;99.90;;;;;;4972108;28;20612;-73
2022/01/18 06:00:38;;;;;;;5.37;2.13;;;3.50;99.90;;;;;;4977144;28;20240;-74
2022/01/18 06:03:13;;;;;;;7.77;2.40;;;3.50;99.90;;;;;;4981448;28;20642;-73
2022/01/18 06:08:23;;;;;;;11.20;3.97;;;3.60;99.90;;;;;;4977738;28;20199;-74
2022/01/18 06:10:49;;;;;;;6.70;2.83;;;3.60;99.90;;;;;;4976633;28;20205;-74
2022/01/18 06:13:14;;;;;;;7.30;2.97;;;3.60;99.90;;;;;;4978734;28;20690;-75
2022/01/18 06:15:40;;;;;;;3.77;2.03;;;3.60;99.90;;;;;;4978701;28;20263;-73
2022/01/18 06:18:06;;;;;;;6.20;2.00;;;3.60;99.90;;;;;;4978113;28;20723;-73
2022/01/18 06:20:33;;;;;;;7.70;2.53;;;3.60;99.90;;;;;;4977995;28;20729;-72
2022/01/18 06:22:59;;;;;;;9.10;2.80;;;3.60;99.90;;;;;;4976620;28;20293;-74
2022/01/18 06:25:25;;;;;;;4.97;2.43;;;3.60;99.90;;;;;;4978562;28;20634;-74
2022/01/18 06:27:51;;;;;;;5.73;2.17;;;3.60;99.90;;;;;;4981164;28;20188;-73
2022/01/18 06:30:18;;;;;;;6.10;2.13;;;3.50;99.90;;;;;;4974178;28;20846;-72
2022/01/18 06:32:44;;;;;;;7.47;2.47;;;3.50;99.90;;;;;;4976478;28;20189;-72
2022/01/18 06:35:11;;;;;;;6.80;2.50;;;3.40;99.90;;;;;;4977005;28;20216;-72
2022/01/18 06:37:38;;;;;;;4.43;2.03;;;3.40;99.90;;;;;;4976361;28;20216;-74
2022/01/18 06:40:05;;;;;;;6.07;2.30;;;3.30;99.90;;;;;;4974448;28;20235;-73
2022/01/18 06:42:31;;;;;;;7.80;2.30;;;3.30;99.90;;;;;;4981787;28;20181;-73
2022/01/18 06:44:57;;;;;;;6.80;2.37;;;3.30;99.90;;;;;;4977778;28;20204;-74
2022/01/18 06:47:23;;;;;;;5.57;2.30;;;3.20;99.90;;;;;;4979909;28;20188;-73
2022/01/18 06:49:49;;;;;;;9.70;2.97;;;3.20;99.90;;;;;;4980828;28;20172;-73
2022/01/18 06:52:15;;;;;;;7.90;2.93;;;3.10;99.90;;;;;;4979999;28;20259;-73
2022/01/18 06:54:41;;;;;;;9.37;2.80;;;3.20;99.90;;;;;;4977480;28;20204;-75
2022/01/18 06:57:07;;;;;;;5.53;2.97;;;3.30;99.90;;;;;;4972794;28;20189;-73
2022/01/18 06:59:34;;;;;;;6.97;3.17;;;3.40;99.90;;;;;;4974569;28;20576;-74
2022/01/18 07:02:00;;;;;;;5.30;2.33;;;3.50;99.90;;;;;;4961856;28;20652;-73
2022/01/18 07:04:26;;;;;;;4.83;2.73;;;3.60;99.90;;;;;;4980710;28;20212;-73
2022/01/18 07:06:52;;;;;;;8.43;3.73;;;3.60;99.90;;;;;;4979285;28;20188;-73
2022/01/18 07:09:22;;;;;;;5.60;3.23;;;3.70;99.90;;;;;;4975721;28;20227;-75
2022/01/18 07:11:49;;;;;;;6.60;3.13;;;3.70;99.90;;;;;;4976359;28;20181;-74
2022/01/18 07:14:15;;;;;;;5.17;2.37;;;3.70;99.90;;;;;;4974845;28;20216;-74
2022/01/18 07:16:40;;;;;;;6.53;2.60;;;3.70;99.90;;;;;;4975367;28;20292;-74
2022/01/18 07:19:06;;;;;;;5.97;2.10;;;3.70;99.90;;;;;;4976087;28;20213;-73
2022/01/18 07:21:32;;;;;;;5.33;2.53;;;3.60;99.90;;;;;;4978214;28;20191;-73
2022/01/18 07:24:04;;;;;;;7.20;2.70;;;3.60;99.90;;;;;;4976676;28;20196;-72
2022/01/18 07:26:31;;;;;;;4.13;2.00;;;3.60;99.90;;;;;;4973830;28;20821;-75
2022/01/18 07:28:57;;;;;;;3.93;1.80;;;3.60;99.90;;;;;;4976354;28;20200;-73
2022/01/18 07:31:22;;;;;;;3.30;1.90;;;3.60;99.90;;;;;;4978515;28;20188;-73
2022/01/18 07:33:48;;;;;;;3.90;1.60;;;3.60;99.90;;;;;;4975664;28;20208;-72
2022/01/18 07:36:14;;;;;;;3.67;1.30;;;3.70;99.90;;;;;;4975073;28;20189;-73
2022/01/18 07:38:40;;;;;;;3.83;1.63;;;3.90;99.90;;;;;;4978683;28;20212;-73
2022/01/18 07:41:05;;;;;;;3.63;1.60;;;3.80;99.90;;;;;;4975572;28;20188;-74
2022/01/18 07:43:31;;;;;;;3.70;1.63;;;3.80;99.90;;;;;;4976762;28;20209;-73
2022/01/18 07:45:56;;;;;;;2.87;1.40;;;4.00;99.90;;;;;;4973794;28;20192;-73
2022/01/18 07:48:23;;;;;;;4.00;1.57;;;3.90;99.90;;;;;;4973561;28;20644;-75
2022/01/18 07:50:51;;;;;;;4.20;1.53;;;3.80;99.90;;;;;;4971608;28;20245;-73
2022/01/18 07:53:18;;;;;;;4.37;1.93;;;3.80;99.90;;;;;;4979947;28;21075;-72
2022/01/18 07:55:43;;;;;;;2.87;1.87;;;3.70;99.90;;;;;;4979567;28;20212;-74
2022/01/18 07:58:09;;;;;;;5.40;2.10;;;3.80;99.90;;;;;;4974887;28;20220;-73
2022/01/18 08:00:35;;;;;;;3.67;1.90;;;3.70;99.90;;;;;;4965293;28;20182;-75
2022/01/18 08:03:00;;;;;;;4.03;2.50;;;3.70;99.90;;;;;;4969313;28;20192;-73
2022/01/18 08:05:26;;;;;;;6.97;2.23;;;3.80;99.90;;;;;;4972391;28;20181;-74
2022/01/18 08:07:52;;;;;;;3.80;2.37;;;4.00;99.90;;;;;;4979171;28;20200;-73
2022/01/18 08:10:18;;;;;;;4.30;2.67;;;4.10;99.90;;;;;;4972040;28;20189;-73
2022/01/18 08:12:45;;;;;;;5.93;3.20;;;4.30;99.90;;;;;;4973580;28;20185;-73
2022/01/18 08:15:14;;;;;;;6.80;3.03;;;4.40;99.90;;;;;;4970893;28;20208;-73
2022/01/18 08:17:42;;;;;;;7.53;3.87;;;4.60;99.90;;;;;;4970943;28;20209;-73
2022/01/18 08:20:10;;;;;;;7.63;4.03;;;4.80;99.90;;;;;;4968077;28;20235;-74
2022/01/18 08:22:36;;;;;;;6.87;4.10;;;4.70;99.90;;;;;;4971579;28;20190;-73
2022/01/18 08:25:02;;;;;;;7.17;4.17;;;4.80;99.90;;;;;;4975387;28;20591;-73
2022/01/18 08:27:28;;;;;;;6.73;3.83;;;4.80;99.90;;;;;;4972864;28;20188;-73
2022/01/18 08:29:53;;;;;;;11.33;4.70;;;4.90;99.90;;;;;;4968497;28;20193;-73
2022/01/18 08:32:19;;;;;;;7.37;3.90;;;4.90;99.90;;;;;;4951320;28;20211;-73
2022/01/18 08:34:45;;;;;;;7.30;4.23;;;5.00;99.90;;;;;;4972196;28;20231;-73
2022/01/18 08:37:11;;;;;;;9.47;4.20;;;5.00;99.90;;;;;;4973023;28;20293;-74
2022/01/18 08:39:36;;;;;;;9.03;4.13;;;5.00;99.90;;;;;;4969223;28;20315;-73
2022/01/18 08:42:03;;;;;;;6.97;3.33;;;5.10;99.90;;;;;;4971125;28;20192;-75
2022/01/18 08:44:29;;;;;;;7.30;4.00;;;5.00;99.90;;;;;;4969331;28;20214;-73
2022/01/18 08:46:55;;;;;;;7.03;3.37;;;5.10;99.90;;;;;;4970851;28;20191;-75
2022/01/18 08:49:21;;;;;;;5.90;3.33;;;5.10;99.90;;;;;;4967804;28;20177;-73
2022/01/18 08:51:46;;;;;;;8.67;3.73;;;5.10;99.90;;;;;;4968171;28;20189;-73
2022/01/18 08:54:12;;;;;;;6.13;3.03;;;5.10;99.90;;;;;;4966484;28;20239;-74
2022/01/18 08:56:38;;;;;;;7.90;2.80;;;5.30;99.90;;;;;;4971387;28;20184;-73
2022/01/18 08:59:03;;;;;;;10.40;3.17;;;5.40;99.90;;;;;;4965746;28;20247;-73
2022/01/18 09:01:29;;;;;;;4.83;2.57;;;5.40;99.90;;;;;;4970296;28;20659;-73
2022/01/18 09:03:55;;;;;;;6.20;3.17;;;5.50;99.90;;;;;;4968948;28;20204;-73
2022/01/18 09:06:23;;;;;;;8.77;3.53;;;5.50;99.90;;;;;;4976701;28;20180;-77
2022/01/18 09:08:55;;;;;;;6.03;3.17;;;5.60;99.90;;;;;;4970172;28;20235;-74
2022/01/18 09:11:24;;;;;;;5.83;3.20;;;5.60;99.90;;;;;;4966813;28;20208;-73
2022/01/18 09:13:53;;;;;;;6.20;4.00;;;5.60;99.90;;;;;;4975635;28;20682;-73
2022/01/18 09:16:20;;;;;;;7.57;3.37;;;5.70;99.90;;;;;;4967995;28;20623;-72
2022/01/18 09:18:46;;;;;;;7.30;3.27;;;5.70;99.90;;;;;;4969169;28;20307;-73
2022/01/18 09:21:12;;;;;;;6.47;4.03;;;5.80;99.90;;;;;;4967874;28;20189;-73
2022/01/18 09:23:39;;;;;;;8.00;4.33;;;5.80;99.90;;;;;;4970263;28;20200;-73
2022/01/18 09:26:06;;;;;;;7.97;3.50;;;6.00;99.90;;;;;;4965888;28;20181;-75
2022/01/18 09:28:32;;;;;;;11.37;3.90;;;6.00;99.90;;;;;;4969397;28;20184;-74
2022/01/18 09:30:58;;;;;;;10.37;4.10;;;6.00;99.90;;;;;;4969521;28;20248;-73
2022/01/18 09:33:23;;;;;;;8.03;4.20;;;6.10;99.90;;;;;;4964784;28;20204;-76
2022/01/18 09:35:50;;;;;;;10.57;4.83;;;6.10;99.90;;;;;;4968755;28;20188;-72
2022/01/18 09:38:16;;;;;;;9.20;4.83;;;6.10;99.90;;;;;;4969109;28;20299;-74
2022/01/18 09:40:43;;;;;;;9.50;5.00;;;6.10;99.90;;;;;;4973332;28;20212;-73
2022/01/18 09:43:12;;;;;;;10.03;4.47;;;6.10;99.90;;;;;;4967344;28;20680;-72
2022/01/18 09:45:41;;;;;;;9.47;4.77;;;6.20;99.90;;;;;;4966681;28;20200;-72
2022/01/18 09:48:08;;;;;;;10.73;4.80;;;6.20;99.90;;;;;;4965595;28;20188;-75
2022/01/18 09:50:36;;;;;;;7.07;3.83;;;6.30;99.90;;;;;;4965353;28;20215;-73
2022/01/18 09:53:04;;;;;;;7.97;4.33;;;6.30;99.90;;;;;;4972003;28;20184;-72
2022/01/18 09:55:31;;;;;;;8.23;4.10;;;6.40;99.90;;;;;;4971584;28;20730;-73
2022/01/18 09:57:59;;;;;;;6.57;3.73;;;6.50;99.90;;;;;;4976732;28;20340;-73
2022/01/18 10:00:28;;;;;;;8.17;4.50;;;6.50;99.90;;;;;;4975988;28;20224;-73
2022/01/18 10:02:54;;;;;;;10.23;4.93;;;6.50;99.90;;;;;;4974206;28;20184;-73
2022/01/18 10:05:24;;;;;;;10.07;4.80;;;6.40;99.90;;;;;;4975797;28;20204;-73
2022/01/18 10:08:00;;;;;;;8.83;4.20;;;6.30;99.90;;;;;;4970538;28;20183;-73
2022/01/18 10:10:41;;;;;;;8.40;4.03;;;6.20;99.90;;;;;;4974256;28;20726;-77
2022/01/18 10:13:09;;;;;;;9.23;4.87;;;6.20;99.90;;;;;;4974916;28;20184;-72
2022/01/18 10:15:34;;;;;;;12.33;5.47;;;6.20;99.90;;;;;;4956050;28;20189;-73
2022/01/18 10:18:08;;;;;;;7.40;4.37;;;6.30;99.90;;;;;;4973843;28;20699;-72
2022/01/18 10:20:52;;;;;;;8.47;4.93;;;6.40;99.90;;;;;;4972461;28;20181;-73
2022/01/18 10:23:23;;;;;;;11.47;5.37;;;6.50;99.90;;;;;;4970002;28;20320;-73
2022/01/18 10:25:49;;;;;;;7.80;5.23;;;6.50;99.90;;;;;;4972022;28;20770;-72
2022/01/18 10:28:47;;;;;;;8.67;5.70;;;6.60;99.90;;;;;;4975287;28;20189;-73
2022/01/18 10:31:37;;;;;;;11.23;5.87;;;6.60;99.90;;;;;;4942911;28;20668;-74
2022/01/18 10:37:09;;;;;;;8.33;5.63;;;6.80;99.90;;;;;;4957462;28;20196;-73
2022/01/18 10:39:36;;;;;;;10.33;5.70;;;6.90;99.90;;;;;;4973011;28;20208;-72
2022/01/18 10:42:21;;;;;;;12.13;6.70;;;6.90;99.90;;;;;;4971808;28;20192;-72
2022/01/18 10:44:56;;;;;;;12.47;6.37;;;6.90;99.90;;;;;;4969140;28;20203;-77
2022/01/18 10:47:22;;;;;;;10.53;6.57;;;7.00;99.90;;;;;;4972682;28;20184;-73
2022/01/18 10:49:48;;;;;;;13.60;8.23;;;7.00;99.90;;;;;;4974127;28;20715;-74
2022/01/18 10:52:20;;;;;;;12.87;8.47;;;7.00;99.90;;;;;;4976382;28;20247;-73
2022/01/18 10:54:54;;;;;;;14.83;8.33;;;7.00;99.90;;;;;;4956951;28;20554;-73
2022/01/18 10:57:27;;;;;;;10.93;6.77;;;7.00;99.90;;;;;;4974414;28;20585;-73
2022/01/18 11:00:11;;;;;;;10.57;7.40;;;7.00;99.90;;;;;;4975135;28;20260;-73
2022/01/18 11:02:40;;;;;;;10.47;6.10;;;6.90;99.90;;;;;;4974573;28;20216;-72
2022/01/18 11:05:26;;;;;;;12.37;5.80;;;6.90;99.90;;;;;;4974488;28;20248;-72
2022/01/18 11:07:54;;;;;;;11.20;6.73;;;6.90;99.90;;;;;;4968172;28;20251;-72
2022/01/18 11:10:23;;;;;;;9.80;6.73;;;6.90;99.90;;;;;;4975383;28;20600;-72
2022/01/18 11:13:05;;;;;;;13.90;6.63;;;6.90;99.90;;;;;;4978157;28;20649;-72
2022/01/18 11:15:33;;;;;;;10.30;6.00;;;6.90;99.90;;;;;;4976473;28;20219;-73
2022/01/18 11:18:03;;;;;;;9.13;5.30;;;7.00;99.90;;;;;;4971132;28;20698;-72
2022/01/18 11:20:33;;;;;;;10.33;6.03;;;7.00;99.90;;;;;;4970638;28;20615;-73
2022/01/18 11:22:59;;;;;;;11.97;6.00;;;7.10;99.90;;;;;;4974596;28;20188;-73
2022/01/18 11:25:25;;;;;;;10.07;6.60;;;7.10;99.90;;;;;;4976163;28;20199;-73
2022/01/18 11:27:56;;;;;;;10.47;6.40;;;7.20;99.90;;;;;;4975291;28;20192;-73
2022/01/18 11:30:25;;;;;;;15.63;7.20;;;7.20;99.90;;;;;;4968328;28;20185;-74
2022/01/18 11:32:53;;;;;;;11.00;5.60;;;7.30;99.90;;;;;;4976592;28;20192;-73
2022/01/18 11:35:21;;;;;;;10.87;5.77;;;7.30;99.90;;;;;;4973106;28;20668;-73
2022/01/18 11:37:58;;;;;;;8.83;5.47;;;7.30;99.90;;;;;;4969086;28;20713;-74
2022/01/18 11:40:25;;;;;;;10.23;5.00;;;7.40;99.90;;;;;;4974723;28;20261;-76
2022/01/18 11:42:52;;;;;;;9.73;5.17;;;7.40;99.90;;;;;;4974933;28;20181;-72
2022/01/18 11:45:29;;;;;;;8.57;4.87;;;7.40;99.90;;;;;;4971400;28;20196;-71
2022/01/18 11:48:11;;;;;;;7.93;4.77;;;7.50;99.90;;;;;;4972078;28;20191;-76
2022/01/18 11:50:43;;;;;;;16.90;5.57;;;7.50;99.90;;;;;;4968164;28;20189;-74
2022/01/18 11:53:22;;;;;;;9.80;4.63;;;7.60;99.90;;;;;;4969447;28;20242;-74
2022/01/18 11:55:48;;;;;;;7.90;4.57;;;7.50;99.90;;;;;;4949807;28;20196;-73
2022/01/18 11:58:14;;;;;;;8.97;4.90;;;7.50;99.90;;;;;;4966957;28;20490;-73
2022/01/18 12:00:49;;;;;;;10.60;6.03;;;7.50;99.90;;;;;;4976245;28;20229;-74
2022/01/18 12:03:21;;;;;;;10.93;5.33;;;7.70;99.90;;;;;;4968184;28;20212;-73
2022/01/18 12:05:48;;;;;;;7.70;4.43;;;7.80;99.90;;;;;;4968493;28;20187;-72
2022/01/18 12:08:43;;;;;;;11.17;4.67;;;7.70;99.90;;;;;;4971841;28;20668;-72
2022/01/18 12:11:33;;;;;;;6.13;3.80;;;7.70;99.90;;;;;;4966272;28;20299;-75
2022/01/18 12:13:59;;;;;;;6.77;4.07;;;7.60;99.90;;;;;;4966503;28;20208;-75
2022/01/18 12:16:29;;;;;;;9.40;3.80;;;7.60;99.90;;;;;;4975350;28;20644;-74
2022/01/18 12:18:55;;;;;;;5.90;3.47;;;7.60;99.90;;;;;;4970790;28;20606;-75
2022/01/18 12:21:26;;;;;;;8.77;3.77;;;7.60;99.90;;;;;;4974615;28;20184;-72
2022/01/18 12:23:51;;;;;;;7.10;3.13;;;7.70;99.90;;;;;;4967504;28;20219;-73
2022/01/18 12:26:42;;;;;;;6.07;2.87;;;7.70;99.90;;;;;;4966820;28;20591;-73
2022/01/18 12:29:34;;;;;;;5.47;2.50;;;7.80;99.90;;;;;;4970542;28;20533;-71
2022/01/18 12:32:18;;;;;;;6.33;2.67;;;7.70;99.90;;;;;;4968766;28;20196;-73
2022/01/18 12:34:47;;;;;;;6.37;2.80;;;7.60;99.90;;;;;;4971030;28;20208;-73
2022/01/18 12:37:26;;;;;;;4.30;2.67;;;7.60;99.90;;;;;;4974323;28;20294;-76
2022/01/18 12:39:55;;;;;;;6.77;2.67;;;7.50;99.90;;;;;;4953535;28;20672;-74
2022/01/18 12:45:09;;;;;;;6.77;3.40;;;7.40;99.90;;;;;;4975759;28;20207;-72
2022/01/18 12:47:49;;;;;;;8.97;3.80;;;7.20;99.90;;;;;;4966995;28;20192;-75
2022/01/18 12:50:32;;;;;;;4.73;2.90;;;7.20;99.90;;;;;;4971571;28;20965;-74
2022/01/18 12:53:07;;;;;;;5.13;2.60;;;7.10;99.90;;;;;;4968847;28;20239;-72
2022/01/18 12:55:43;;;;;;;7.83;3.50;;;7.10;99.90;;;;;;4971446;28;20730;-73
2022/01/18 12:58:22;;;;;;;7.50;3.73;;;7.10;99.90;;;;;;4956315;28;20748;-71
2022/01/18 13:00:50;;;;;;;7.63;3.20;;;7.10;99.90;;;;;;4972076;28;21167;-74
2022/01/18 13:03:43;;;;;;;5.30;3.13;;;7.20;99.90;;;;;;4970446;28;20626;-72
2022/01/18 13:06:16;;;;;;;9.70;3.53;;;7.30;99.90;;;;;;4964267;28;20185;-72
2022/01/18 13:08:46;;;;;;;6.63;3.87;;;7.40;99.90;;;;;;4972518;28;20188;-72
2022/01/18 13:11:15;;;;;;;7.27;3.47;;;7.30;99.90;;;;;;4973059;28;20192;-71
2022/01/18 13:13:48;;;;;;;7.93;3.53;;;7.30;99.90;;;;;;4968818;28;20227;-74
2022/01/18 13:26:51;;;;;;;6.40;2.73;;;7.40;99.90;;;;;;4973629;28;20706;-74
2022/01/18 13:29:23;;;;;;;8.40;2.30;;;7.30;99.90;;;;;;4959385;28;20535;-73
2022/01/18 13:32:10;;;;;;;5.33;1.53;;;7.30;99.90;;;;;;4972805;28;20234;-74
2022/01/18 13:34:38;;;;;;;3.37;1.10;;;7.40;99.90;;;;;;4947907;28;20258;-75
2022/01/18 13:37:07;;;;;;;3.90;1.23;;;7.40;99.90;;;;;;4969887;28;20239;-73
2022/01/18 13:39:48;;;;;;;6.10;1.63;;;7.40;99.90;;;;;;4966113;28;20557;-73
2022/01/18 13:42:17;;;;;;;5.03;1.90;;;7.40;99.90;;;;;;4966994;28;20191;-74
2022/01/18 13:45:09;;;;;;;5.83;2.60;;;7.30;99.90;;;;;;4969308;28;20204;-72
2022/01/18 13:47:53;;;;;;;6.70;3.10;;;7.30;99.90;;;;;;4965347;28;20191;-72
2022/01/18 13:50:31;;;;;;;4.57;1.87;;;7.30;99.90;;;;;;4965847;28;20232;-73
2022/01/18 13:53:17;;;;;;;7.07;3.30;;;7.30;99.90;;;;;;4971748;28;20192;-74
2022/01/18 13:55:51;;;;;;;5.63;2.60;;;7.30;99.90;;;;;;4967254;28;20177;-73
2022/01/18 13:58:30;;;;;;;5.60;3.13;;;7.20;99.90;;;;;;4969611;28;20738;-73
2022/01/18 14:01:08;;;;;;;7.53;3.67;;;7.20;99.90;;;;;;4976261;28;20276;-72
2022/01/18 14:03:48;;;;;;;9.47;2.40;;;7.10;99.90;;;;;;4969458;28;20743;-72
2022/01/18 14:06:15;;;;;;;7.97;3.23;;;7.00;99.90;;;;;;4971748;28;20199;-74
2022/01/18 14:08:52;;;;;;;6.83;2.83;;;7.00;99.90;;;;;;4955769;28;20769;-74
2022/01/18 14:11:22;;;;;;;10.43;4.40;;;7.00;99.90;;;;;;4976362;28;20196;-75
2022/01/18 14:13:48;;;;;;;7.83;3.63;;;7.00;99.90;;;;;;4970709;28;20208;-74
2022/01/18 14:16:36;;;;;;;6.43;2.83;;;7.10;99.90;;;;;;4968434;28;20192;-74
2022/01/18 14:19:09;;;;;;;14.57;7.27;;;7.00;99.90;;;;;;4967442;28;20216;-74
2022/01/18 14:21:42;;;;;;;10.67;5.33;;;7.00;99.90;;;;;;4968246;28;20185;-73
2022/01/18 14:24:16;;;;;;;9.13;4.77;;;6.90;99.90;;;;;;4965476;28;20238;-72